Time;durP1;ratioP1;P1;durP2;ratioP2;P2;SDS_P1;SDS_P2;PMS_P1;PMS_P2;Temp;Humidity;BMP_temperature;BMP_pressure;BME280_temperature;BME280_humidity;BME280_pressure;Samples;Min_cycle;Max_cycle;Signal;HPM_P1;HPM_P2
2021/01/19 00:01:26;;;;;;;;;;;5.70;99.90;;;;;;5118668;27;20329;-87
2021/01/19 00:03:59;;;;;;;;;;;5.70;99.90;;;;;;5119776;27;20010;-86
2021/01/19 00:06:28;;;;;;;;;;;5.70;99.90;;;;;;5116851;27;19908;-87
2021/01/19 00:08:54;;;;;;;;;;;5.70;99.90;;;;;;5113575;27;20352;-86
2021/01/19 00:11:34;;;;;;;;;;;5.70;99.90;;;;;;5130632;27;19913;-87
2021/01/19 00:14:05;;;;;;;;;;;5.70;99.90;;;;;;5114817;27;19932;-87
2021/01/19 00:16:31;;;;;;;;;;;5.80;99.90;;;;;;5114229;27;19907;-87
2021/01/19 00:18:59;;;;;;;;;;;5.70;99.90;;;;;;5117709;27;19914;-88
2021/01/19 00:21:27;;;;;;;;;;;5.80;99.90;;;;;;5118100;27;19927;-87
2021/01/19 00:23:55;;;;;;;;;;;5.70;99.90;;;;;;5117837;27;19943;-87
2021/01/19 00:26:24;;;;;;;;;;;5.70;99.90;;;;;;5118044;27;19908;-87
2021/01/19 00:28:58;;;;;;;;;;;5.70;99.90;;;;;;5117903;27;19922;-87
2021/01/19 00:31:30;;;;;;;;;;;5.70;99.90;;;;;;5114922;28;19951;-87
2021/01/19 00:34:01;;;;;;;;;;;5.70;99.90;;;;;;5117712;27;19907;-87
2021/01/19 00:36:30;;;;;;;;;;;5.70;99.90;;;;;;5114472;27;19908;-87
2021/01/19 00:39:08;;;;;;;;;;;5.60;99.90;;;;;;5117806;28;20363;-87
2021/01/19 00:41:40;;;;;;;;;;;5.60;99.90;;;;;;5117918;28;20371;-87
2021/01/19 00:44:11;;;;;;;;;;;5.60;99.90;;;;;;5130318;27;20420;-87
2021/01/19 00:46:40;;;;;;;;;;;5.70;99.90;;;;;;5117124;28;19907;-88
2021/01/19 00:49:05;;;;;;;;;;;5.60;99.90;;;;;;5130799;28;19929;-87
2021/01/19 00:51:34;;;;;;;;;;;5.60;99.90;;;;;;5111270;28;19919;-88
2021/01/19 00:54:00;;;;;;;;;;;5.60;99.90;;;;;;5135723;28;19908;-88
2021/01/19 00:56:48;;;;;;;;;;;5.60;99.90;;;;;;5116731;28;19908;-88
2021/01/19 00:59:23;;;;;;;;;;;5.60;99.90;;;;;;5136564;27;20252;-88
2021/01/19 01:01:51;;;;;;;;;;;5.60;99.90;;;;;;5121643;27;20419;-88
2021/01/19 01:04:17;;;;;;;;;;;5.60;99.90;;;;;;5118622;27;19915;-87
2021/01/19 01:07:01;;;;;;;;;;;5.60;99.90;;;;;;5133147;27;20261;-87
2021/01/19 01:09:37;;;;;;;;;;;5.60;99.90;;;;;;5140075;27;20368;-87
2021/01/19 01:12:05;;;;;;;;;;;5.60;99.90;;;;;;5119259;27;19957;-87
2021/01/19 01:14:31;;;;;;;;;;;5.60;99.90;;;;;;5121393;27;20002;-87
2021/01/19 01:17:03;;;;;;;;;;;5.50;99.90;;;;;;5121081;27;19947;-88
2021/01/19 01:19:31;;;;;;;;;;;5.60;99.90;;;;;;5139458;27;19908;-88
2021/01/19 01:22:01;;;;;;;;;;;5.60;99.90;;;;;;5117107;27;19969;-88
2021/01/19 01:24:37;;;;;;;;;;;5.50;99.90;;;;;;5121045;27;19908;-87
2021/01/19 01:27:03;;;;;;;;;;;5.50;99.90;;;;;;5121269;27;19907;-88
2021/01/19 01:29:35;;;;;;;;;;;5.50;99.90;;;;;;5121089;27;19912;-88
2021/01/19 01:32:07;;;;;;;;;;;5.50;99.90;;;;;;5117180;27;20412;-88
2021/01/19 01:34:41;;;;;;;;;;;5.50;99.90;;;;;;5120644;27;19982;-89
2021/01/19 01:37:14;;;;;;;;;;;5.50;99.90;;;;;;5120423;27;20360;-87
2021/01/19 01:39:48;;;;;;;;;;;5.50;99.90;;;;;;5115938;27;19915;-87
2021/01/19 01:42:24;;;;;;;;;;;5.50;99.90;;;;;;5120534;27;19970;-88
2021/01/19 01:44:55;;;;;;;;;;;5.40;99.90;;;;;;5120311;27;20371;-88
2021/01/19 01:47:27;;;;;;;;;;;5.50;99.90;;;;;;5120342;27;19908;-87
2021/01/19 01:49:58;;;;;;;;;;;5.50;99.90;;;;;;5135810;27;19912;-89
2021/01/19 01:52:29;;;;;;;;;;;5.40;99.90;;;;;;5118362;27;19924;-89
2021/01/19 01:55:04;;;;;;;;;;;5.40;99.90;;;;;;5116393;27;19935;-87
2021/01/19 01:57:38;;;;;;;;;;;5.40;99.90;;;;;;5121030;27;19919;-88
2021/01/19 02:00:07;;;;;;;;;;;5.40;99.90;;;;;;5120172;27;20368;-88
2021/01/19 02:02:46;;;;;;;;;;;5.40;99.90;;;;;;5138531;27;19916;-88
2021/01/19 02:05:17;;;;;;;;;;;5.30;99.90;;;;;;5119950;27;19907;-88
2021/01/19 02:07:48;;;;;;;;;;;5.30;99.90;;;;;;5120147;27;19932;-87
2021/01/19 02:13:27;;;;;;;;;;;5.20;99.90;;;;;;5138425;27;19908;-88
2021/01/19 02:15:57;;;;;;;;;;;5.20;99.90;;;;;;5133663;27;19912;-88
2021/01/19 02:18:23;;;;;;;;;;;5.10;99.90;;;;;;5140879;27;19908;-86
2021/01/19 02:20:59;;;;;;;;;;;5.10;99.90;;;;;;5123858;27;20359;-86
2021/01/19 02:23:34;;;;;;;;;;;5.10;99.90;;;;;;5120303;27;20256;-87
2021/01/19 02:26:12;;;;;;;;;;;5.20;99.90;;;;;;5119673;27;19908;-88
2021/01/19 02:28:48;;;;;;;;;;;5.20;99.90;;;;;;5119402;27;19920;-87
2021/01/19 02:31:32;;;;;;;;;;;5.20;99.90;;;;;;5119814;27;20002;-87
2021/01/19 02:34:17;;;;;;;;;;;5.20;99.90;;;;;;5119940;27;20393;-88
2021/01/19 02:37:02;;;;;;;;;;;5.30;99.90;;;;;;5119557;27;19962;-86
2021/01/19 02:39:40;;;;;;;;;;;5.30;99.90;;;;;;5120146;27;19908;-88
2021/01/19 02:42:09;;;;;;;;;;;5.30;99.90;;;;;;5116357;27;19915;-87
2021/01/19 02:44:41;;;;;;;;;;;5.30;99.90;;;;;;5119767;27;20336;-87
2021/01/19 02:47:07;;;;;;;;;;;5.30;99.90;;;;;;5119381;27;20271;-88
2021/01/19 02:49:38;;;;;;;;;;;5.30;99.90;;;;;;5113156;27;19908;-87
2021/01/19 02:52:04;;;;;;;;;;;5.30;99.90;;;;;;5118848;27;19967;-87
2021/01/19 02:54:33;;;;;;;;;;;5.30;99.90;;;;;;5119516;27;19907;-87
2021/01/19 02:57:04;;;;;;;;;;;5.30;99.90;;;;;;5112003;28;19915;-86
2021/01/19 02:59:35;;;;;;;;;;;5.30;99.90;;;;;;5097776;28;19912;-87
2021/01/19 03:02:07;;;;;;;;;;;5.30;99.90;;;;;;5114519;28;19922;-86
2021/01/19 03:04:37;;;;;;;;;;;5.30;99.90;;;;;;5097780;28;20360;-87
2021/01/19 03:07:08;;;;;;;;;;;5.20;99.90;;;;;;5094922;28;19998;-86
2021/01/19 03:09:35;;;;;;;;;;;5.10;99.90;;;;;;5097672;28;19908;-86
2021/01/19 03:12:01;;;;;;;;;;;5.10;99.90;;;;;;5114700;28;19908;-87
2021/01/19 03:14:36;;;;;;;;;;;5.00;99.90;;;;;;5096748;28;20391;-87
2021/01/19 03:17:16;;;;;;;;;;;5.00;99.90;;;;;;5114688;28;19995;-88
2021/01/19 03:19:46;;;;;;;;;;;5.00;99.90;;;;;;5097232;28;19959;-87
2021/01/19 03:22:13;;;;;;;;;;;5.00;99.90;;;;;;5096737;28;19916;-88
2021/01/19 03:24:41;;;;;;;;;;;5.00;99.90;;;;;;5113991;28;19912;-87
2021/01/19 03:27:13;;;;;;;;;;;5.00;99.90;;;;;;5116871;27;19922;-87
2021/01/19 03:29:43;;;;;;;;;;;5.00;99.90;;;;;;5131517;27;19907;-87
2021/01/19 03:32:11;;;;;;;;;;;5.00;99.90;;;;;;5118304;27;20391;-86
2021/01/19 03:34:42;;;;;;;;;;;4.90;99.90;;;;;;5117999;27;19908;-88
2021/01/19 03:37:11;;;;;;;;;;;4.90;99.90;;;;;;5113832;27;19908;-87
2021/01/19 03:39:39;;;;;;;;;;;4.80;99.90;;;;;;5117907;27;20297;-87
2021/01/19 03:42:05;;;;;;;;;;;4.80;99.90;;;;;;5117603;27;19919;-87
2021/01/19 03:44:34;;;;;;;;;;;4.70;99.90;;;;;;5136212;27;19916;-86
2021/01/19 03:47:07;;;;;;;;;;;4.70;99.90;;;;;;5136541;27;20006;-87
2021/01/19 03:49:35;;;;;;;;;;;4.70;99.90;;;;;;5131523;27;19960;-87
2021/01/19 03:52:10;;;;;;;;;;;4.60;99.90;;;;;;5135638;27;19920;-86
2021/01/19 03:54:41;;;;;;;;;;;4.60;99.90;;;;;;5117986;27;19907;-86
2021/01/19 03:57:17;;;;;;;;;;;4.60;99.90;;;;;;5117968;27;19961;-87
2021/01/19 03:59:42;;;;;;;;;;;4.60;99.90;;;;;;5119085;27;20010;-86
2021/01/19 04:02:10;;;;;;;;;;;4.50;99.90;;;;;;5117322;27;19943;-87
2021/01/19 04:04:40;;;;;;;;;;;4.50;99.90;;;;;;5117206;27;19933;-87
2021/01/19 04:07:09;;;;;;;;;;;4.50;99.90;;;;;;5114658;27;19911;-87
2021/01/19 04:09:44;;;;;;;;;;;4.50;99.90;;;;;;5117364;27;20359;-87
2021/01/19 04:12:18;;;;;;;;;;;4.50;99.90;;;;;;5135528;27;19917;-86
2021/01/19 04:14:50;;;;;;;;;;;4.50;99.90;;;;;;5135819;27;19907;-87
2021/01/19 04:17:23;;;;;;;;;;;4.50;99.90;;;;;;5111677;27;20330;-87
2021/01/19 04:19:52;;;;;;;;;;;4.50;99.90;;;;;;5115382;27;19912;-87
2021/01/19 04:22:17;;;;;;;;;;;4.50;99.90;;;;;;5117466;27;19960;-88
2021/01/19 04:24:46;;;;;;;;;;;4.50;99.90;;;;;;5117557;27;19907;-88
2021/01/19 04:27:20;;;;;;;;;;;4.50;99.90;;;;;;5135378;27;19911;-87
2021/01/19 04:29:53;;;;;;;;;;;4.50;99.90;;;;;;5135626;27;19907;-88
2021/01/19 04:32:24;;;;;;;;;;;4.60;99.90;;;;;;5136021;27;19911;-87
2021/01/19 04:34:54;;;;;;;;;;;4.50;99.90;;;;;;5135418;27;19975;-88
2021/01/19 04:37:23;;;;;;;;;;;4.50;99.90;;;;;;5117600;27;19908;-88
2021/01/19 04:39:59;;;;;;;;;;;4.50;99.90;;;;;;5117171;28;19914;-88
2021/01/19 04:42:35;;;;;;;;;;;4.50;99.90;;;;;;5112736;27;20006;-88
2021/01/19 04:45:08;;;;;;;;;;;4.50;99.90;;;;;;5135899;27;19915;-88
2021/01/19 04:47:36;;;;;;;;;;;4.50;99.90;;;;;;5116901;28;20233;-88
2021/01/19 04:50:22;;;;;;;;;;;4.60;99.90;;;;;;5117077;28;19911;-88
2021/01/19 04:52:53;;;;;;;;;;;4.60;99.90;;;;;;5117332;28;20008;-87
2021/01/19 04:55:26;;;;;;;;;;;4.60;99.90;;;;;;5116730;28;19914;-87
2021/01/19 04:58:04;;;;;;;;;;;4.60;99.90;;;;;;5117389;28;19907;-88
2021/01/19 05:00:31;;;;;;;;;;;4.60;99.90;;;;;;5117243;28;19907;-88
2021/01/19 05:02:58;;;;;;;;;;;4.60;99.90;;;;;;5116588;28;19912;-88
2021/01/19 05:05:35;;;;;;;;;;;4.70;99.90;;;;;;5116608;28;19908;-88
2021/01/19 05:08:19;;;;;;;;;;;4.70;99.90;;;;;;5116933;28;19914;-87
2021/01/19 05:10:54;;;;;;;;;;;4.70;99.90;;;;;;5117416;28;19907;-88
2021/01/19 05:13:39;;;;;;;;;;;4.70;99.90;;;;;;5135912;28;20336;-88
2021/01/19 05:16:07;;;;;;;;;;;4.60;99.90;;;;;;5100393;28;20352;-88
2021/01/19 05:18:52;;;;;;;;;;;4.70;99.90;;;;;;5111550;28;20012;-88
2021/01/19 05:21:21;;;;;;;;;;;4.70;99.90;;;;;;5117329;28;20340;-88
2021/01/19 05:23:52;;;;;;;;;;;4.60;99.90;;;;;;5111878;28;19959;-89
2021/01/19 05:26:20;;;;;;;;;;;4.70;99.90;;;;;;5116912;28;20371;-89
2021/01/19 05:28:54;;;;;;;;;;;4.70;99.90;;;;;;5135518;28;19908;-88
2021/01/19 05:31:27;;;;;;;;;;;4.70;99.90;;;;;;5117539;28;19998;-88
2021/01/19 05:34:01;;;;;;;;;;;4.70;99.90;;;;;;5117001;28;20271;-88
2021/01/19 05:36:33;;;;;;;;;;;4.70;99.90;;;;;;5117743;28;20387;-89
2021/01/19 05:39:03;;;;;;;;;;;4.70;99.90;;;;;;5119445;28;19911;-89
2021/01/19 05:41:40;;;;;;;;;;;4.70;99.90;;;;;;5119787;28;19915;-89
2021/01/19 05:44:29;;;;;;;;;;;4.70;99.90;;;;;;5113683;28;19908;-91
2021/01/19 05:47:06;;;;;;;;;;;4.70;99.90;;;;;;5119395;27;19955;-88
2021/01/19 05:49:41;;;;;;;;;;;4.70;99.90;;;;;;5119968;27;20364;-88
2021/01/19 05:52:18;;;;;;;;;;;4.80;99.90;;;;;;5120498;27;19927;-88
2021/01/19 05:54:50;;;;;;;;;;;4.80;99.90;;;;;;5135258;27;20365;-88
2021/01/19 05:57:28;;;;;;;;;;;4.80;99.90;;;;;;5120084;27;20383;-87
2021/01/19 05:59:58;;;;;;;;;;;4.80;99.90;;;;;;5118873;27;19907;-88
2021/01/19 06:02:34;;;;;;;;;;;4.80;99.90;;;;;;5119909;27;20387;-87
2021/01/19 06:05:12;;;;;;;;;;;4.80;99.90;;;;;;5119952;27;19911;-87
2021/01/19 06:07:38;;;;;;;;;;;4.80;99.90;;;;;;5119528;27;20493;-87
2021/01/19 06:10:11;;;;;;;;;;;4.80;99.90;;;;;;5119793;27;19922;-88
2021/01/19 06:12:39;;;;;;;;;;;4.90;99.90;;;;;;5133418;27;19911;-87
2021/01/19 06:15:11;;;;;;;;;;;4.90;99.90;;;;;;5148110;27;19976;-88
2021/01/19 06:17:37;;;;;;;;;;;4.90;99.90;;;;;;5126523;27;19911;-87
2021/01/19 06:20:06;;;;;;;;;;;4.90;99.90;;;;;;5137247;27;19911;-86
2021/01/19 06:22:32;;;;;;;;;;;4.90;99.90;;;;;;5158983;27;20430;-88
2021/01/19 06:25:01;;;;;;;;;;;4.90;99.90;;;;;;5158891;27;19951;-87
2021/01/19 06:27:31;;;;;;;;;;;5.00;99.90;;;;;;5135787;27;19914;-87
2021/01/19 06:30:10;;;;;;;;;;;5.00;99.90;;;;;;5158746;27;19914;-88
2021/01/19 06:32:44;;;;;;;;;;;5.00;99.90;;;;;;5140961;27;19907;-88
2021/01/19 06:35:21;;;;;;;;;;;5.00;99.90;;;;;;5151875;27;20367;-88
2021/01/19 06:37:48;;;;;;;;;;;5.00;99.90;;;;;;5139914;27;19908;-86
2021/01/19 06:40:19;;;;;;;;;;;5.00;99.90;;;;;;5140645;27;20240;-87
2021/01/19 06:43:02;;;;;;;;;;;5.10;99.90;;;;;;5140050;27;19915;-86
2021/01/19 06:45:35;;;;;;;;;;;5.10;99.90;;;;;;5158925;27;19907;-87
2021/01/19 06:48:06;;;;;;;;;;;5.10;99.90;;;;;;5140203;27;19907;-88
2021/01/19 06:50:36;;;;;;;;;;;5.10;99.90;;;;;;5137650;27;19931;-87
2021/01/19 06:53:31;;;;;;;;;;;5.10;99.90;;;;;;5139666;27;20001;-86
2021/01/19 06:56:18;;;;;;;;;;;5.20;99.90;;;;;;5139549;27;19950;-86
2021/01/19 06:58:56;;;;;;;;;;;5.20;99.90;;;;;;5138986;27;20022;-87
2021/01/19 07:01:25;;;;;;;;;;;5.20;99.90;;;;;;5157884;27;19911;-87
2021/01/19 07:04:03;;;;;;;;;;;5.20;99.90;;;;;;5139562;27;19911;-86
2021/01/19 07:06:49;;;;;;;;;;;5.20;99.90;;;;;;5157397;27;19946;-86
2021/01/19 07:09:37;;;;;;;;;;;5.20;99.90;;;;;;5134071;27;19952;-86
2021/01/19 07:12:11;;;;;;;;;;;5.30;99.90;;;;;;5142633;27;19911;-86
2021/01/19 07:14:43;;;;;;;;;;;5.30;99.90;;;;;;5136670;27;19930;-86
2021/01/19 07:17:27;;;;;;;;;;;5.30;99.90;;;;;;5113961;27;19911;-87
2021/01/19 07:19:59;;;;;;;;;;;5.30;99.90;;;;;;5134313;27;19912;-89
2021/01/19 07:22:48;;;;;;;;;;;5.30;99.90;;;;;;5126552;27;19923;-88
2021/01/19 07:25:16;;;;;;;;;;;5.40;99.90;;;;;;5118435;27;19908;-88
2021/01/19 07:27:45;;;;;;;;;;;5.40;99.90;;;;;;5118763;27;19911;-87
2021/01/19 07:30:14;;;;;;;;;;;5.40;99.90;;;;;;5116494;27;19912;-88
2021/01/19 07:32:40;;;;;;;;;;;5.40;99.90;;;;;;5137388;27;19920;-88
2021/01/19 07:35:07;;;;;;;;;;;5.40;99.90;;;;;;5095050;28;19915;-88
2021/01/19 07:37:39;;;;;;;;;;;5.40;99.90;;;;;;5109227;27;19912;-88
2021/01/19 07:40:42;;;;;;;;;;;5.40;99.90;;;;;;5111988;28;19908;-87
2021/01/19 07:43:17;;;;;;;;;;;5.50;99.90;;;;;;5076199;28;20006;-88
2021/01/19 07:45:53;;;;;;;;;;;5.50;99.90;;;;;;5109429;27;19908;-86
2021/01/19 07:48:32;;;;;;;;;;;5.50;99.90;;;;;;5103249;28;19908;-89
2021/01/19 07:51:18;;;;;;;;;;;5.60;99.90;;;;;;5093476;28;19930;-87
2021/01/19 07:53:49;;;;;;;;;;;5.60;99.90;;;;;;5088455;28;20002;-87
2021/01/19 07:56:30;;;;;;;;;;;5.60;99.90;;;;;;5076379;28;19908;-88
2021/01/19 07:58:57;;;;;;;;;;;5.60;99.90;;;;;;5093040;28;19908;-89
2021/01/19 08:01:31;;;;;;;;;;;5.70;99.90;;;;;;5088534;28;19916;-88
2021/01/19 08:04:12;;;;;;;;;;;5.70;99.90;;;;;;5093567;28;19966;-88
2021/01/19 08:06:53;;;;;;;;;;;5.70;99.90;;;;;;5105769;27;19907;-88
2021/01/19 08:09:30;;;;;;;;;;;5.80;99.90;;;;;;5117300;27;20459;-87
2021/01/19 08:12:24;;;;;;;;;;;5.70;99.90;;;;;;5120415;27;20283;-87
2021/01/19 08:15:02;;;;;;;;;;;5.80;99.90;;;;;;5124579;27;20371;-88
2021/01/19 08:17:42;;;;;;;;;;;5.80;99.90;;;;;;5135889;27;19929;-89
2021/01/19 08:20:13;;;;;;;;;;;5.80;99.90;;;;;;5117783;27;20310;-88
2021/01/19 08:22:44;;;;;;;;;;;5.80;99.90;;;;;;5136315;27;20402;-86
2021/01/19 08:25:13;;;;;;;;;;;5.90;99.90;;;;;;5136116;27;20002;-86
2021/01/19 08:27:43;;;;;;;;;;;5.90;99.90;;;;;;5135756;27;19915;-87
2021/01/19 08:30:29;;;;;;;;;;;5.90;99.90;;;;;;5132907;27;19912;-88
2021/01/19 08:33:04;;;;;;;;;;;5.90;99.90;;;;;;5117821;27;19907;-88
2021/01/19 08:35:30;;;;;;;;;;;6.00;99.90;;;;;;5117692;27;19918;-88
2021/01/19 08:38:07;;;;;;;;;;;6.00;99.90;;;;;;5117432;27;19914;-88
2021/01/19 08:40:39;;;;;;;;;;;6.10;99.90;;;;;;5117564;28;19914;-87
2021/01/19 08:43:10;;;;;;;;;;;6.10;99.90;;;;;;5110569;28;19915;-88
2021/01/19 08:45:41;;;;;;;;;;;6.10;99.90;;;;;;5093256;28;19907;-90
2021/01/19 08:48:11;;;;;;;;;;;6.10;99.90;;;;;;5068334;28;19909;-89
2021/01/19 08:50:38;;;;;;;;;;;6.20;99.90;;;;;;5070931;28;19908;-88
2021/01/19 08:53:19;;;;;;;;;;;6.20;99.90;;;;;;5051065;28;20309;-91
2021/01/19 08:55:54;;;;;;;;;;;6.20;99.90;;;;;;5052048;28;19917;-89
2021/01/19 08:58:30;;;;;;;;;;;6.30;99.90;;;;;;5051783;28;20032;-88
2021/01/19 09:01:05;;;;;;;;;;;6.20;99.90;;;;;;5048540;28;19917;-88
2021/01/19 09:03:33;;;;;;;;;;;6.30;99.90;;;;;;5057002;28;19972;-89
2021/01/19 09:06:14;;;;;;;;;;;6.30;99.90;;;;;;5052398;28;19913;-89
2021/01/19 09:08:43;;;;;;;;;;;6.30;99.90;;;;;;5052033;28;19966;-88
2021/01/19 09:11:12;;;;;;;;;;;6.40;99.90;;;;;;5049998;28;19913;-87
2021/01/19 09:13:53;;;;;;;;;;;6.30;99.90;;;;;;5051087;28;20373;-85
2021/01/19 09:16:30;;;;;;;;;;;6.40;99.90;;;;;;5054976;28;19914;-87
2021/01/19 09:19:04;;;;;;;;;;;6.40;99.90;;;;;;5054400;28;19916;-86
2021/01/19 09:21:40;;;;;;;;;;;6.40;99.90;;;;;;5064715;28;19922;-86
2021/01/19 09:24:25;;;;;;;;;;;6.50;99.90;;;;;;5106738;27;19973;-86
2021/01/19 09:27:01;;;;;;;;;;;6.50;99.90;;;;;;5114214;28;19933;-87
2021/01/19 09:29:45;;;;;;;;;;;6.50;99.90;;;;;;5103030;27;19908;-88
2021/01/19 09:32:24;;;;;;;;;;;6.60;99.90;;;;;;5115595;27;19915;-88
2021/01/19 09:35:17;;;;;;;;;;;6.60;99.90;;;;;;5126238;27;19959;-87
2021/01/19 09:37:43;;;;;;;;;;;6.60;99.90;;;;;;5108529;27;19914;-87
2021/01/19 09:40:14;;;;;;;;;;;6.60;99.90;;;;;;5119491;27;19912;-89
2021/01/19 09:42:48;;;;;;;;;;;6.60;99.90;;;;;;5106231;28;20032;-88
2021/01/19 09:45:20;;;;;;;;;;;6.60;99.90;;;;;;5099264;28;19908;-87
2021/01/19 09:48:07;;;;;;;;;;;6.70;99.90;;;;;;5096585;28;20045;-89
2021/01/19 09:50:35;;;;;;;;;;;6.70;99.90;;;;;;5118277;28;19908;-90
2021/01/19 09:53:05;;;;;;;;;;;6.70;99.90;;;;;;5117511;27;20057;-89
2021/01/19 09:55:37;;;;;;;;;;;6.70;99.90;;;;;;5120752;27;19911;-90
2021/01/19 09:58:06;;;;;;;;;;;6.80;99.90;;;;;;5138964;27;19960;-90
2021/01/19 10:00:37;;;;;;;;;;;6.80;99.90;;;;;;5118207;27;19911;-89
2021/01/19 10:03:40;;;;;;;;;;;6.80;99.90;;;;;;5121073;27;19911;-90
2021/01/19 10:06:21;;;;;;;;;;;6.90;99.90;;;;;;5055552;28;19913;-87
2021/01/19 10:08:51;;;;;;;;;;;6.90;99.90;;;;;;5046063;28;19920;-88
2021/01/19 10:11:36;;;;;;;;;;;7.00;99.90;;;;;;5131469;27;19912;-89
2021/01/19 10:14:11;;;;;;;;;;;7.00;99.90;;;;;;5114219;27;19914;-89
2021/01/19 10:17:02;;;;;;;;;;;7.00;99.90;;;;;;5138155;27;20004;-89
2021/01/19 10:19:35;;;;;;;;;;;7.10;99.90;;;;;;5138051;27;19960;-89
2021/01/19 10:22:23;;;;;;;;;;;7.10;99.90;;;;;;5120116;27;19919;-87
2021/01/19 10:25:10;;;;;;;;;;;7.20;99.90;;;;;;5136770;27;19907;-89
2021/01/19 10:30:55;;;;;;;;;;;7.30;99.90;;;;;;5130234;27;19914;-88
2021/01/19 10:33:40;;;;;;;;;;;7.30;99.90;;;;;;5119208;27;20371;-89
2021/01/19 10:36:13;;;;;;;;;;;7.40;99.90;;;;;;5120321;27;19908;-89
2021/01/19 10:39:06;;;;;;;;;;;7.40;99.90;;;;;;5138663;27;19908;-88
2021/01/19 10:41:50;;;;;;;;;;;7.50;99.90;;;;;;5119068;27;20352;-89
2021/01/19 10:44:27;;;;;;;;;;;7.50;99.90;;;;;;5125098;27;19914;-89
2021/01/19 10:47:05;;;;;;;;;;;7.60;99.90;;;;;;5143812;27;20017;-89
2021/01/19 10:52:43;;;;;;;;;;;7.70;99.90;;;;;;5117063;27;20010;-87
2021/01/19 10:55:18;;;;;;;;;;;7.80;99.90;;;;;;5137314;27;20407;-87
2021/01/19 10:57:56;;;;;;;;;;;7.80;99.90;;;;;;5104040;27;19916;-88
2021/01/19 11:00:30;;;;;;;;;;;7.80;99.90;;;;;;5133824;27;19915;-87
2021/01/19 11:03:26;;;;;;;;;;;7.90;99.90;;;;;;5119527;27;19915;-87
2021/01/19 11:06:21;;;;;;;;;;;8.00;99.90;;;;;;5119552;27;19908;-88
2021/01/19 11:09:07;;;;;;;;;;;8.00;99.90;;;;;;5018359;28;20003;-90
2021/01/19 11:12:01;;;;;;;;;;;8.10;99.90;;;;;;5029606;28;20305;-88
2021/01/19 11:14:29;;;;;;;;;;;8.20;99.90;;;;;;5110104;27;19914;-88
2021/01/19 11:17:09;;;;;;;;;;;8.20;99.90;;;;;;5114219;27;19907;-87
2021/01/19 11:19:47;;;;;;;;;;;8.30;99.90;;;;;;5119184;27;19907;-88
2021/01/19 11:22:21;;;;;;;;;;;8.40;99.90;;;;;;5113843;27;19916;-89
2021/01/19 11:25:10;;;;;;;;;;;8.50;99.90;;;;;;5114532;27;19912;-89
2021/01/19 11:27:35;;;;;;;;;;;8.60;99.90;;;;;;5016833;28;19914;-88
2021/01/19 11:30:14;;;;;;;;;;;8.60;99.90;;;;;;5014212;28;19916;-89
2021/01/19 11:32:49;;;;;;;;;;;8.70;99.90;;;;;;5016728;28;19963;-89
2021/01/19 11:35:35;;;;;;;;;;;8.80;99.90;;;;;;5014956;28;19944;-90
2021/01/19 11:38:09;;;;;;;;;;;8.80;99.90;;;;;;5017062;28;19948;-89
2021/01/19 11:40:58;;;;;;;;;;;8.80;99.90;;;;;;5017402;28;19935;-89
2021/01/19 11:43:30;;;;;;;;;;;8.90;99.90;;;;;;5016862;28;19952;-89
2021/01/19 11:46:18;;;;;;;;;;;8.90;99.90;;;;;;5016960;28;19916;-89
2021/01/19 11:49:15;;;;;;;;;;;9.00;99.90;;;;;;4993869;28;19917;-88
2021/01/19 11:52:04;;;;;;;;;;;9.00;99.90;;;;;;5033823;28;20043;-88
2021/01/19 11:55:01;;;;;;;;;;;9.00;99.90;;;;;;5066455;28;19997;-88
2021/01/19 11:58:09;;;;;;;;;;;9.00;99.90;;;;;;5147385;27;20347;-87
2021/01/19 12:00:53;;;;;;;;;;;9.00;99.90;;;;;;5173604;27;19907;-90
2021/01/19 12:03:28;;;;;;;;;;;9.10;99.90;;;;;;5142836;27;19907;-88
2021/01/19 12:08:57;;;;;;;;;;;9.10;99.90;;;;;;5123158;27;19954;-86
2021/01/19 12:11:29;;;;;;;;;;;9.20;99.90;;;;;;5144092;27;20405;-87
2021/01/19 12:14:05;;;;;;;;;;;9.20;99.90;;;;;;5127680;27;20379;-87
2021/01/19 12:16:34;;;;;;;;;;;9.20;99.90;;;;;;5158237;27;20427;-85
2021/01/19 12:19:09;;;;;;;;;;;9.20;99.90;;;;;;5158342;27;20013;-87
2021/01/19 12:22:29;;;;;;;;;;;9.30;99.90;;;;;;5157438;27;20385;-87
2021/01/19 12:24:26;;;;;;;;;;;9.30;99.90;;;;;;5154255;27;19911;-86
2021/01/19 12:26:56;;;;;;;;;;;9.30;99.90;;;;;;5164232;27;20294;-85
2021/01/19 12:29:31;;;;;;;;;;;9.30;99.90;;;;;;5178515;27;19907;-85
2021/01/19 12:32:15;;;;;;;;;;;9.30;99.90;;;;;;5141634;27;19914;-86
2021/01/19 12:34:51;;;;;;;;;;;9.40;99.90;;;;;;5134467;27;19908;-87
2021/01/19 12:37:23;;;;;;;;;;;9.40;99.90;;;;;;5144917;27;20431;-86
2021/01/19 12:39:50;;;;;;;;;;;9.40;99.90;;;;;;5137695;27;19912;-86
2021/01/19 12:42:17;;;;;;;;;;;9.40;99.90;;;;;;5127980;27;19911;-86
2021/01/19 12:44:43;;;;;;;;;;;9.40;99.90;;;;;;5136626;27;19923;-86
2021/01/19 12:47:11;;;;;;;;;;;9.40;99.90;;;;;;5129369;27;20335;-87
2021/01/19 12:49:53;;;;;;;;;;;9.50;99.90;;;;;;5143323;27;19911;-86
2021/01/19 12:52:25;;;;;;;;;;;9.50;99.90;;;;;;5113703;28;19965;-87
2021/01/19 12:54:53;;;;;;;;;;;9.50;99.90;;;;;;5115036;28;19994;-86
2021/01/19 12:57:21;;;;;;;;;;;9.50;99.90;;;;;;5116008;28;19915;-86
2021/01/19 12:59:58;;;;;;;;;;;9.50;99.90;;;;;;5116580;27;19908;-86
2021/01/19 13:02:34;;;;;;;;;;;9.60;99.90;;;;;;5134099;28;19915;-87
2021/01/19 13:05:07;;;;;;;;;;;9.60;99.90;;;;;;5118224;28;20345;-89
2021/01/19 13:07:40;;;;;;;;;;;9.60;99.90;;;;;;5152867;27;20009;-86
2021/01/19 13:10:23;;;;;;;;;;;9.60;99.90;;;;;;5149915;27;20343;-88
2021/01/19 13:12:52;;;;;;;;;;;9.60;99.90;;;;;;5116420;28;19907;-88
2021/01/19 13:15:24;;;;;;;;;;;9.60;99.90;;;;;;5116842;28;19907;-88
2021/01/19 13:18:01;;;;;;;;;;;9.70;99.90;;;;;;5126987;27;19960;-87
2021/01/19 13:20:29;;;;;;;;;;;9.70;99.90;;;;;;5120882;28;19930;-87
2021/01/19 13:23:04;;;;;;;;;;;9.70;99.90;;;;;;5116592;27;19958;-87
2021/01/19 13:25:34;;;;;;;;;;;9.70;99.90;;;;;;5139036;27;20263;-87
2021/01/19 13:28:01;;;;;;;;;;;9.70;99.90;;;;;;5116440;28;19922;-87
2021/01/19 13:30:30;;;;;;;;;;;9.70;99.90;;;;;;5108651;27;19976;-87
2021/01/19 13:32:58;;;;;;;;;;;9.70;99.90;;;;;;5119653;27;20379;-88
2021/01/19 13:35:26;;;;;;;;;;;9.70;99.90;;;;;;5130412;27;19908;-87
2021/01/19 13:37:55;;;;;;;;;;;9.70;99.90;;;;;;5134211;27;19907;-88
2021/01/19 13:40:23;;;;;;;;;;;9.70;99.90;;;;;;5125120;28;19919;-87
2021/01/19 13:42:53;;;;;;;;;;;9.70;99.90;;;;;;5124862;27;19915;-87
2021/01/19 13:45:23;;;;;;;;;;;9.70;99.90;;;;;;5155153;27;19914;-88
2021/01/19 13:47:54;;;;;;;;;;;9.70;99.90;;;;;;5118488;28;19908;-87
2021/01/19 13:50:26;;;;;;;;;;;9.70;99.90;;;;;;5150835;27;19915;-88
2021/01/19 13:52:57;;;;;;;;;;;9.70;99.90;;;;;;5113387;28;19946;-86
2021/01/19 13:55:46;;;;;;;;;;;9.70;99.90;;;;;;5133549;27;19937;-86
2021/01/19 13:58:14;;;;;;;;;;;9.70;99.90;;;;;;5113970;28;19911;-85
2021/01/19 14:00:42;;;;;;;;;;;9.70;99.90;;;;;;5115885;28;20433;-85
2021/01/19 14:03:10;;;;;;;;;;;9.70;99.90;;;;;;5117194;28;19915;-87
2021/01/19 14:05:42;;;;;;;;;;;9.80;99.90;;;;;;5117301;28;19962;-86
2021/01/19 14:08:24;;;;;;;;;;;9.80;99.90;;;;;;5144446;27;19907;-87
2021/01/19 14:10:51;;;;;;;;;;;9.80;99.90;;;;;;5139769;27;19907;-89
2021/01/19 14:13:25;;;;;;;;;;;9.80;99.90;;;;;;5127184;27;19907;-87
2021/01/19 14:15:57;;;;;;;;;;;9.80;99.90;;;;;;5120700;27;20009;-87
2021/01/19 14:18:27;;;;;;;;;;;9.80;99.90;;;;;;5138994;27;19943;-87
2021/01/19 14:20:56;;;;;;;;;;;9.80;99.90;;;;;;5117404;27;19934;-85
2021/01/19 14:23:25;;;;;;;;;;;9.90;99.90;;;;;;5120153;27;19934;-85
2021/01/19 14:25:56;;;;;;;;;;;9.90;99.90;;;;;;5121058;27;19908;-85
2021/01/19 14:28:45;;;;;;;;;;;9.90;99.90;;;;;;5140131;27;19951;-87
2021/01/19 14:31:16;;;;;;;;;;;9.90;99.90;;;;;;5155900;27;19966;-86
2021/01/19 14:33:51;;;;;;;;;;;9.90;99.90;;;;;;5120167;27;19908;-87
2021/01/19 14:36:26;;;;;;;;;;;9.90;99.90;;;;;;5119316;27;19914;-86
2021/01/19 14:39:05;;;;;;;;;;;9.90;99.90;;;;;;5134101;27;19961;-88
2021/01/19 14:41:43;;;;;;;;;;;9.90;99.90;;;;;;5129995;27;19911;-87
2021/01/19 14:44:21;;;;;;;;;;;9.90;99.90;;;;;;5119608;27;19922;-87
2021/01/19 14:47:05;;;;;;;;;;;9.90;99.90;;;;;;5119853;27;19953;-87
2021/01/19 14:49:34;;;;;;;;;;;9.90;99.90;;;;;;5121947;27;19918;-86
2021/01/19 14:52:02;;;;;;;;;;;9.90;99.90;;;;;;5119369;27;19919;-86
2021/01/19 14:54:32;;;;;;;;;;;9.90;99.90;;;;;;5119622;27;20324;-86
2021/01/19 14:57:01;;;;;;;;;;;9.90;99.90;;;;;;5118954;27;20380;-87
2021/01/19 14:59:32;;;;;;;;;;;9.90;99.90;;;;;;5116945;27;20415;-86
2021/01/19 15:02:24;;;;;;;;;;;9.90;99.90;;;;;;5119187;27;20365;-86
2021/01/19 15:04:55;;;;;;;;;;;9.90;99.90;;;;;;5118340;27;19907;-86
2021/01/19 15:07:20;;;;;;;;;;;9.90;99.90;;;;;;5115239;27;19915;-87
2021/01/19 15:09:47;;;;;;;;;;;9.90;99.90;;;;;;5126549;27;20006;-87
2021/01/19 15:12:19;;;;;;;;;;;9.90;99.90;;;;;;5121293;27;20294;-88
2021/01/19 15:14:51;;;;;;;;;;;9.80;99.90;;;;;;5127649;27;19907;-87
2021/01/19 15:17:20;;;;;;;;;;;9.80;99.90;;;;;;5125811;27;19951;-86
2021/01/19 15:19:58;;;;;;;;;;;9.90;99.90;;;;;;5118028;27;19907;-87
2021/01/19 15:22:26;;;;;;;;;;;9.80;99.90;;;;;;5133689;27;19919;-86
2021/01/19 15:24:57;;;;;;;;;;;9.80;99.90;;;;;;5119073;27;19914;-87